createdAt,value
2018-07-11T00:00:29.202Z,17.30
2018-07-11T00:01:29.234Z,17.32
2018-07-11T00:02:29.252Z,17.33
2018-07-11T00:03:29.278Z,17.28
2018-07-11T00:04:29.300Z,17.30
2018-07-11T00:05:29.332Z,17.38
2018-07-11T00:06:29.351Z,17.39
2018-07-11T00:07:29.370Z,17.33
2018-07-11T00:08:29.398Z,17.47
2018-07-11T00:09:29.425Z,17.40
2018-07-11T00:10:29.450Z,17.40
2018-07-11T00:11:29.477Z,17.30
2018-07-11T00:12:29.496Z,17.24
2018-07-11T00:13:29.522Z,17.24
2018-07-11T00:14:29.542Z,17.21
2018-07-11T00:15:29.575Z,17.12
2018-07-11T00:16:29.592Z,17.14
2018-07-11T00:17:29.616Z,17.17
2018-07-11T00:18:29.647Z,17.10
2018-07-11T00:19:29.669Z,17.06
2018-07-11T00:20:29.691Z,17.02
2018-07-11T00:21:29.717Z,17.06
2018-07-11T00:22:29.744Z,17.06
2018-07-11T00:23:29.767Z,17.07
2018-07-11T00:24:29.798Z,17.05
2018-07-11T00:25:29.821Z,17.10
2018-07-11T00:26:29.836Z,17.00
2018-07-11T00:27:29.867Z,16.99
2018-07-11T00:28:29.887Z,16.99
2018-07-11T00:29:29.923Z,16.88
2018-07-11T00:30:29.939Z,17.00
2018-07-11T00:31:29.965Z,16.98
2018-07-11T00:32:29.987Z,17.05
2018-07-11T00:33:30.015Z,17.06
2018-07-11T00:34:30.038Z,17.07
2018-07-11T00:35:30.064Z,17.10
2018-07-11T00:36:30.086Z,17.07
2018-07-11T00:37:30.347Z,17.02
2018-07-11T00:38:30.130Z,16.99
2018-07-11T00:39:30.159Z,17.00
2018-07-11T00:40:30.184Z,17.03
2018-07-11T00:41:30.207Z,17.07
2018-07-11T00:42:30.229Z,17.05
2018-07-11T00:43:30.252Z,17.05
2018-07-11T00:44:30.279Z,17.10
2018-07-11T00:45:30.302Z,17.15
2018-07-11T00:46:30.324Z,17.07
2018-07-11T00:47:30.362Z,17.05
2018-07-11T00:48:30.375Z,17.07
2018-07-11T00:49:30.404Z,17.12
2018-07-11T00:50:30.432Z,17.20
2018-07-11T00:51:30.452Z,17.20
2018-07-11T00:52:30.475Z,17.18
2018-07-11T00:53:30.504Z,17.25
2018-07-11T00:54:30.529Z,17.36
2018-07-11T00:55:30.552Z,17.33
2018-07-11T00:56:30.579Z,17.43
2018-07-11T00:57:30.603Z,17.39
2018-07-11T00:58:30.616Z,17.36
2018-07-11T00:59:30.656Z,17.39
2018-07-11T01:00:30.670Z,17.32
2018-07-11T01:01:30.699Z,17.45
2018-07-11T01:02:30.724Z,17.36
2018-07-11T01:03:30.741Z,17.36
2018-07-11T01:04:30.769Z,17.40
2018-07-11T01:05:30.791Z,17.38
2018-07-11T01:06:30.817Z,17.38
2018-07-11T01:07:30.842Z,17.39
2018-07-11T01:08:30.865Z,17.32
2018-07-11T01:09:30.891Z,17.38
2018-07-11T01:10:30.913Z,17.40
2018-07-11T01:11:30.939Z,17.51
2018-07-11T01:12:30.964Z,17.43
2018-07-11T01:13:30.990Z,17.39
2018-07-11T01:14:31.016Z,17.38
2018-07-11T01:15:31.038Z,17.38
2018-07-11T01:16:31.060Z,17.45
2018-07-11T01:17:31.092Z,17.45
2018-07-11T01:18:31.110Z,17.53
2018-07-11T01:19:31.136Z,17.49
2018-07-11T01:20:31.160Z,17.40
2018-07-11T01:21:31.184Z,17.39
2018-07-11T01:22:31.209Z,17.46
2018-07-11T01:23:31.234Z,17.40
2018-07-11T01:24:31.260Z,17.54
2018-07-11T01:25:31.284Z,17.53
2018-07-11T01:26:31.309Z,17.49
2018-07-11T01:27:31.328Z,17.49
2018-07-11T01:28:31.365Z,17.51
2018-07-11T01:29:31.378Z,17.42
2018-07-11T01:30:31.406Z,17.49
2018-07-11T01:31:31.431Z,17.55
2018-07-11T01:32:31.459Z,17.53
2018-07-11T01:33:31.486Z,17.45
2018-07-11T01:34:31.504Z,17.46
2018-07-11T01:35:31.530Z,17.43
2018-07-11T01:36:31.556Z,17.43
2018-07-11T01:37:31.578Z,17.39
2018-07-11T01:38:31.600Z,17.36
2018-07-11T01:39:31.652Z,17.47
2018-07-11T01:40:31.686Z,17.42
2018-07-11T01:41:31.680Z,17.47
2018-07-11T01:42:31.703Z,17.51
2018-07-11T01:43:31.723Z,17.42
2018-07-11T01:44:31.749Z,17.46
2018-07-11T01:45:31.773Z,17.51
2018-07-11T01:46:31.801Z,17.46
2018-07-11T01:47:31.828Z,17.47
2018-07-11T01:48:31.851Z,17.43
2018-07-11T01:49:31.869Z,17.42
2018-07-11T01:50:31.899Z,17.45
2018-07-11T01:51:31.921Z,17.40
2018-07-11T01:52:31.949Z,17.42
2018-07-11T01:53:31.968Z,17.39
2018-07-11T01:54:32.001Z,17.35
2018-07-11T01:55:32.019Z,17.39
2018-07-11T01:56:32.046Z,17.40
2018-07-11T01:57:32.072Z,17.40
2018-07-11T01:58:32.094Z,17.43
2018-07-11T01:59:32.113Z,17.39
2018-07-11T02:00:32.143Z,17.38
2018-07-11T02:01:32.169Z,17.40
2018-07-11T02:02:32.188Z,17.39
2018-07-11T02:03:32.219Z,17.35
2018-07-11T02:04:32.237Z,17.35
2018-07-11T02:05:32.268Z,17.32
2018-07-11T02:06:32.295Z,17.36
2018-07-11T02:07:32.312Z,17.35
2018-07-11T02:08:32.336Z,17.40
2018-07-11T02:09:32.366Z,17.35
2018-07-11T02:10:32.382Z,17.38
2018-07-11T02:11:32.411Z,17.35
2018-07-11T02:12:32.437Z,17.32
2018-07-11T02:13:32.459Z,17.33
2018-07-11T02:14:32.485Z,17.27
2018-07-11T02:15:32.507Z,17.27
2018-07-11T02:16:32.533Z,17.17
2018-07-11T02:17:32.557Z,17.18
2018-07-11T02:18:32.585Z,17.21
2018-07-11T02:19:32.609Z,17.15
2018-07-11T02:20:32.629Z,17.18
2018-07-11T02:21:32.661Z,17.28
2018-07-11T02:22:32.680Z,17.30
2018-07-11T02:23:32.708Z,17.30
2018-07-11T02:24:32.733Z,17.32
2018-07-11T02:25:32.760Z,17.32
2018-07-11T02:26:32.778Z,17.40
2018-07-11T02:27:32.804Z,17.35
2018-07-11T02:28:32.827Z,17.30
2018-07-11T02:29:32.855Z,17.30
2018-07-11T02:30:32.881Z,17.27
2018-07-11T02:31:32.900Z,17.35
2018-07-11T02:32:32.928Z,17.27
2018-07-11T02:33:32.959Z,17.24
2018-07-11T02:34:32.975Z,17.25
2018-07-11T02:35:33.001Z,17.21
2018-07-11T02:36:33.023Z,17.24
2018-07-11T02:37:33.056Z,17.32
2018-07-11T02:38:33.084Z,17.25
2018-07-11T02:39:33.099Z,17.24
2018-07-11T02:40:33.126Z,17.22
2018-07-11T02:41:33.148Z,17.27
2018-07-11T02:42:33.171Z,17.24
2018-07-11T02:43:33.199Z,17.30
2018-07-11T02:44:33.222Z,17.27
2018-07-11T02:45:33.250Z,17.35
2018-07-11T02:46:33.269Z,17.35
2018-07-11T02:47:33.292Z,17.33
2018-07-11T02:48:33.315Z,17.35
2018-07-11T02:49:33.341Z,17.28
2018-07-11T02:50:33.369Z,17.35
2018-07-11T02:51:33.387Z,17.35
2018-07-11T02:52:33.416Z,17.36
2018-07-11T02:53:33.438Z,17.38
2018-07-11T02:54:33.465Z,17.38
2018-07-11T02:55:33.502Z,17.39
2018-07-11T02:56:33.514Z,17.39
2018-07-11T02:57:33.543Z,17.33
2018-07-11T02:58:33.565Z,17.35
2018-07-11T02:59:33.590Z,17.38
2018-07-11T03:00:33.605Z,17.36
2018-07-11T03:01:33.640Z,17.33
2018-07-11T03:02:33.656Z,17.40
2018-07-11T03:03:33.683Z,17.42
2018-07-11T03:04:33.711Z,17.38
2018-07-11T03:05:33.732Z,17.38
2018-07-11T03:06:33.753Z,17.38
2018-07-11T03:07:33.779Z,17.30
2018-07-11T03:08:33.811Z,17.27
2018-07-11T03:09:33.831Z,17.25
2018-07-11T03:10:33.865Z,17.20
2018-07-11T03:11:33.883Z,17.27
2018-07-11T03:12:33.906Z,17.24
2018-07-11T03:13:33.927Z,17.20
2018-07-11T03:14:33.957Z,17.27
2018-07-11T03:15:33.979Z,17.27
2018-07-11T03:16:33.999Z,17.28
2018-07-11T03:17:34.025Z,17.35
2018-07-11T03:18:34.046Z,17.27
2018-07-11T03:19:34.074Z,17.28
2018-07-11T03:20:34.104Z,17.32
2018-07-11T03:21:34.126Z,17.28
2018-07-11T03:22:34.145Z,17.33
2018-07-11T03:23:34.175Z,17.30
2018-07-11T03:24:34.197Z,17.28
2018-07-11T03:25:34.223Z,17.32
2018-07-11T03:26:34.244Z,17.24
2018-07-11T03:27:34.265Z,17.30
2018-07-11T03:28:34.294Z,17.25
2018-07-11T03:29:34.320Z,17.28
2018-07-11T03:30:34.340Z,17.36
2018-07-11T03:31:34.365Z,17.35
2018-07-11T03:32:34.495Z,17.32
2018-07-11T03:33:34.420Z,17.33
2018-07-11T03:34:34.439Z,17.39
2018-07-11T03:35:34.517Z,17.35
2018-07-11T03:36:34.489Z,17.38
2018-07-11T03:37:34.519Z,17.38
2018-07-11T03:38:34.541Z,17.43
2018-07-11T03:39:34.561Z,17.43
2018-07-11T03:40:34.588Z,17.42
2018-07-11T03:41:34.618Z,17.38
2018-07-11T03:42:34.635Z,17.39
2018-07-11T03:43:34.665Z,17.38
2018-07-11T03:44:34.684Z,17.38
2018-07-11T03:45:34.705Z,17.40
2018-07-11T03:46:34.737Z,17.45
2018-07-11T03:47:34.758Z,17.49
2018-07-11T03:48:34.787Z,17.58
2018-07-11T03:49:34.802Z,17.53
2018-07-11T03:50:34.835Z,17.66
2018-07-11T03:51:34.859Z,17.55
2018-07-11T03:52:34.880Z,17.55
2018-07-11T03:53:34.903Z,17.51
2018-07-11T03:54:34.926Z,17.58
2018-07-11T03:55:34.957Z,17.49
2018-07-11T03:56:34.975Z,17.45
2018-07-11T03:57:35.005Z,17.49
2018-07-11T03:58:35.031Z,17.42
2018-07-11T03:59:35.049Z,17.62
2018-07-11T04:00:35.075Z,17.51
2018-07-11T04:01:35.105Z,17.47
2018-07-11T04:02:35.117Z,17.45
2018-07-11T04:03:35.148Z,17.60
2018-07-11T04:04:35.166Z,17.46
2018-07-11T04:05:35.197Z,17.49
2018-07-11T04:06:35.220Z,17.46
2018-07-11T04:07:35.240Z,17.43
2018-07-11T04:08:35.268Z,17.43
2018-07-11T04:09:35.291Z,17.43
2018-07-11T04:10:35.315Z,17.47
2018-07-11T04:11:35.338Z,17.47
2018-07-11T04:12:35.366Z,17.43
2018-07-11T04:13:35.386Z,17.40
2018-07-11T04:14:35.409Z,17.36
2018-07-11T04:15:35.433Z,17.36
2018-07-11T04:16:35.459Z,17.43
2018-07-11T04:17:35.490Z,17.35
2018-07-11T04:18:35.513Z,17.32
2018-07-11T04:19:35.527Z,17.36
2018-07-11T04:20:35.552Z,17.32
2018-07-11T04:21:35.579Z,17.40
2018-07-11T04:22:35.606Z,17.42
2018-07-11T04:23:35.625Z,17.35
2018-07-11T04:24:35.650Z,17.35
2018-07-11T04:25:35.675Z,17.28
2018-07-11T04:26:35.701Z,17.27
2018-07-11T04:27:35.720Z,17.32
2018-07-11T04:28:35.746Z,17.32
2018-07-11T04:29:35.763Z,17.27
2018-07-11T04:30:35.797Z,17.36
2018-07-11T04:31:35.810Z,17.40
2018-07-11T04:32:35.840Z,17.30
2018-07-11T04:33:35.867Z,17.35
2018-07-11T04:34:35.946Z,17.36
2018-07-11T04:35:35.909Z,17.38
2018-07-11T04:36:35.927Z,17.47
2018-07-11T04:37:35.955Z,17.47
2018-07-11T04:38:35.976Z,17.39
2018-07-11T04:39:36.007Z,17.53
2018-07-11T04:40:36.023Z,17.47
2018-07-11T04:41:36.047Z,17.43
2018-07-11T04:42:36.173Z,17.51
2018-07-11T04:43:36.092Z,17.49
2018-07-11T04:44:36.121Z,17.49
2018-07-11T04:45:36.142Z,17.49
2018-07-11T04:46:36.172Z,17.33
2018-07-11T04:47:36.191Z,17.39
2018-07-11T04:48:36.211Z,17.40
2018-07-11T04:49:36.237Z,17.43
2018-07-11T04:50:36.266Z,17.60
2018-07-11T04:51:36.293Z,17.51
2018-07-11T04:52:36.370Z,17.51
2018-07-11T04:53:36.331Z,17.63
2018-07-11T04:54:36.357Z,17.68
2018-07-11T04:55:36.384Z,17.58
2018-07-11T04:56:36.401Z,17.70
2018-07-11T04:57:36.427Z,17.65
2018-07-11T04:58:36.453Z,17.68
2018-07-11T04:59:36.471Z,17.62
2018-07-11T05:00:36.497Z,17.60
2018-07-11T05:01:36.523Z,17.63
2018-07-11T05:02:36.543Z,17.51
2018-07-11T05:03:36.565Z,17.46
2018-07-11T05:04:36.615Z,17.58
2018-07-11T05:05:36.617Z,17.46
2018-07-11T05:06:36.645Z,17.66
2018-07-11T05:07:36.677Z,17.57
2018-07-11T05:08:36.691Z,17.62
2018-07-11T05:09:36.709Z,17.65
2018-07-11T05:10:36.731Z,17.63
2018-07-11T05:11:36.764Z,17.66
2018-07-11T05:12:36.782Z,17.79
2018-07-11T05:13:36.805Z,17.63
2018-07-11T05:14:36.831Z,17.63
2018-07-11T05:15:36.860Z,17.68
2018-07-11T05:16:36.879Z,17.71
2018-07-11T05:17:36.907Z,17.63
2018-07-11T05:18:36.927Z,17.66
2018-07-11T05:19:36.954Z,17.71
2018-07-11T05:20:36.979Z,17.70
2018-07-11T05:21:36.997Z,17.63
2018-07-11T05:22:37.023Z,17.68
2018-07-11T05:23:37.043Z,17.65
2018-07-11T05:24:37.075Z,17.70
2018-07-11T05:25:37.097Z,17.73
2018-07-11T05:26:37.117Z,17.76
2018-07-11T05:27:37.172Z,17.77
2018-07-11T05:28:37.163Z,17.81
2018-07-11T05:29:37.192Z,17.83
2018-07-11T05:30:37.217Z,17.84
2018-07-11T05:31:37.242Z,17.99
2018-07-11T05:32:37.263Z,18.01
2018-07-11T05:33:37.289Z,18.05
2018-07-11T05:34:37.316Z,18.19
2018-07-11T05:35:37.333Z,18.17
2018-07-11T05:36:37.363Z,18.21
2018-07-11T05:37:37.381Z,18.25
2018-07-11T05:38:37.404Z,18.35
2018-07-11T05:39:37.434Z,18.25
2018-07-11T05:40:37.455Z,18.31
2018-07-11T05:41:37.482Z,18.36
2018-07-11T05:42:37.501Z,18.34
2018-07-11T05:43:37.527Z,18.35
2018-07-11T05:44:37.547Z,18.31
2018-07-11T05:45:37.575Z,18.32
2018-07-11T05:46:37.597Z,18.32
2018-07-11T05:47:37.625Z,18.36
2018-07-11T05:48:37.653Z,18.35
2018-07-11T05:49:37.681Z,18.42
2018-07-11T05:50:37.709Z,18.32
2018-07-11T05:51:37.719Z,18.36
2018-07-11T05:52:37.758Z,18.20
2018-07-11T05:53:37.771Z,18.34
2018-07-11T05:54:37.799Z,18.29
2018-07-11T05:55:37.880Z,18.26
2018-07-11T05:56:37.856Z,18.26
2018-07-11T05:57:37.865Z,18.32
2018-07-11T05:58:37.888Z,18.26
2018-07-11T05:59:37.918Z,18.35
2018-07-11T06:00:37.941Z,18.21
2018-07-11T06:01:37.963Z,18.19
2018-07-11T06:02:37.997Z,18.23
2018-07-11T06:03:38.015Z,18.17
2018-07-11T06:04:38.041Z,18.23
2018-07-11T06:05:38.060Z,18.17
2018-07-11T06:06:38.085Z,18.20
2018-07-11T06:07:38.107Z,18.20
2018-07-11T06:08:38.135Z,18.16
2018-07-11T06:09:38.160Z,18.23
2018-07-11T06:10:38.178Z,18.17
2018-07-11T06:11:38.207Z,18.17
2018-07-11T06:12:38.230Z,18.16
2018-07-11T06:13:38.312Z,18.19
2018-07-11T06:14:38.277Z,18.20
2018-07-11T06:15:38.303Z,18.23
2018-07-11T06:16:38.329Z,18.32
2018-07-11T06:17:38.356Z,18.32
2018-07-11T06:18:38.378Z,18.25
2018-07-11T06:19:38.398Z,18.34
2018-07-11T06:20:38.430Z,18.26
2018-07-11T06:21:38.447Z,18.16
2018-07-11T06:22:38.477Z,18.23
2018-07-11T06:23:38.507Z,18.25
2018-07-11T06:24:38.520Z,18.28
2018-07-11T06:25:38.548Z,18.35
2018-07-11T06:26:38.573Z,18.32
2018-07-11T06:27:38.595Z,18.35
2018-07-11T06:28:38.623Z,18.36
2018-07-11T06:29:38.647Z,18.41
2018-07-11T06:30:38.669Z,18.31
2018-07-11T06:31:38.693Z,18.28
2018-07-11T06:32:38.719Z,18.38
2018-07-11T06:33:38.801Z,18.35
2018-07-11T06:34:38.766Z,18.38
2018-07-11T06:35:38.790Z,18.29
2018-07-11T06:36:38.810Z,18.29
2018-07-11T06:37:38.839Z,18.31
2018-07-11T06:38:38.864Z,18.34
2018-07-11T06:39:38.884Z,18.31
2018-07-11T06:40:38.906Z,18.23
2018-07-11T06:41:38.933Z,18.31
2018-07-11T06:42:38.959Z,18.29
2018-07-11T06:43:38.987Z,18.36
2018-07-11T06:44:39.015Z,18.38
2018-07-11T06:45:39.031Z,18.39
2018-07-11T06:46:39.058Z,18.42
2018-07-11T06:47:39.080Z,18.28
2018-07-11T06:48:39.110Z,18.23
2018-07-11T06:49:39.127Z,18.23
2018-07-11T06:50:39.146Z,18.20
2018-07-11T06:51:39.184Z,18.38
2018-07-11T06:52:39.206Z,18.28
2018-07-11T06:53:39.250Z,18.42
2018-07-11T06:54:39.245Z,18.35
2018-07-11T06:55:39.274Z,18.41
2018-07-11T06:56:39.298Z,18.44
2018-07-11T06:57:39.346Z,18.39
2018-07-11T06:58:39.346Z,18.35
2018-07-11T06:59:39.370Z,18.42
2018-07-11T07:00:39.394Z,18.36
2018-07-11T07:01:39.418Z,18.39
2018-07-11T07:02:39.440Z,18.35
2018-07-11T07:03:39.557Z,18.41
2018-07-11T07:04:39.497Z,18.38
2018-07-11T07:05:39.516Z,18.42
2018-07-11T07:06:39.546Z,18.41
2018-07-11T07:07:39.574Z,18.47
2018-07-11T07:08:39.585Z,18.39
2018-07-11T07:09:39.611Z,18.46
2018-07-11T07:10:39.647Z,18.53
2018-07-11T07:11:39.674Z,18.36
2018-07-11T07:12:39.679Z,18.41
2018-07-11T07:13:39.713Z,18.46
2018-07-11T07:14:39.732Z,18.47
2018-07-11T07:15:39.759Z,18.59
2018-07-11T07:16:39.814Z,18.60
2018-07-11T07:17:39.814Z,18.66
2018-07-11T07:18:39.828Z,18.56
2018-07-11T07:19:39.862Z,18.57
2018-07-11T07:20:39.881Z,18.65
2018-07-11T07:21:39.910Z,18.72
2018-07-11T07:22:39.931Z,18.72
2018-07-11T07:23:39.950Z,18.57
2018-07-11T07:24:39.980Z,18.62
2018-07-11T07:25:40.013Z,18.69
2018-07-11T07:26:40.029Z,18.66
2018-07-11T07:27:40.061Z,18.72
2018-07-11T07:28:40.077Z,18.69
2018-07-11T07:29:40.100Z,18.69
2018-07-11T07:30:40.123Z,18.64
2018-07-11T07:31:40.147Z,18.69
2018-07-11T07:32:40.184Z,18.68
2018-07-11T07:33:40.196Z,18.64
2018-07-11T07:34:40.260Z,18.62
2018-07-11T07:35:40.245Z,18.64
2018-07-11T07:36:40.312Z,18.60
2018-07-11T07:37:40.301Z,18.50
2018-07-11T07:38:40.319Z,18.44
2018-07-11T07:39:40.363Z,18.41
2018-07-11T07:40:40.371Z,18.46
2018-07-11T07:41:40.389Z,18.50
2018-07-11T07:42:40.415Z,18.64
2018-07-11T07:43:40.441Z,18.57
2018-07-11T07:44:40.465Z,18.46
2018-07-11T07:45:40.496Z,18.64
2018-07-11T07:46:40.516Z,18.60
2018-07-11T07:47:40.540Z,18.54
2018-07-11T07:48:40.566Z,18.66
2018-07-11T07:49:40.588Z,18.62
2018-07-11T07:50:40.617Z,18.66
2018-07-11T07:51:40.638Z,18.72
2018-07-11T07:52:40.662Z,18.76
2018-07-11T07:53:40.689Z,18.75
2018-07-11T07:54:40.715Z,18.72
2018-07-11T07:55:40.743Z,18.76
2018-07-11T07:56:40.761Z,18.72
2018-07-11T07:57:40.784Z,18.64
2018-07-11T07:58:40.807Z,18.66
2018-07-11T07:59:40.842Z,18.62
2018-07-11T08:00:40.865Z,18.59
2018-07-11T08:01:40.883Z,18.65
2018-07-11T08:02:40.906Z,18.69
2018-07-11T08:03:40.930Z,18.72
2018-07-11T08:04:40.963Z,18.65
2018-07-11T08:05:40.977Z,18.78
2018-07-11T08:06:41.004Z,18.72
2018-07-11T08:07:41.033Z,18.79
2018-07-11T08:08:41.054Z,18.84
2018-07-11T08:09:41.082Z,18.87
2018-07-11T08:10:41.104Z,18.96
2018-07-11T08:11:41.132Z,18.90
2018-07-11T08:12:41.225Z,18.90
2018-07-11T08:13:41.175Z,18.91
2018-07-11T08:14:41.207Z,18.90
2018-07-11T08:15:41.227Z,18.97
2018-07-11T08:16:41.258Z,19.12
2018-07-11T08:17:41.281Z,19.16
2018-07-11T08:18:41.304Z,19.17
2018-07-11T08:19:41.341Z,19.12
2018-07-11T08:20:41.347Z,19.16
2018-07-11T08:21:41.383Z,19.12
2018-07-11T08:22:41.404Z,19.16
2018-07-11T08:23:41.427Z,19.21
2018-07-11T08:24:41.450Z,19.23
2018-07-11T08:25:41.469Z,19.21
2018-07-11T08:26:41.504Z,19.35
2018-07-11T08:27:41.525Z,19.15
2018-07-11T08:28:41.551Z,19.12
2018-07-11T08:29:41.573Z,19.15
2018-07-11T08:30:41.605Z,19.12
2018-07-11T08:31:41.625Z,19.09
2018-07-11T08:32:41.645Z,19.10
2018-07-11T08:33:41.674Z,19.12
2018-07-11T08:34:41.725Z,19.09
2018-07-11T08:35:41.724Z,19.09
2018-07-11T08:36:41.746Z,19.12
2018-07-11T08:37:41.774Z,19.09
2018-07-11T08:38:41.793Z,19.16
2018-07-11T08:39:41.827Z,19.24
2018-07-11T08:40:41.848Z,19.09
2018-07-11T08:41:41.868Z,19.16
2018-07-11T08:42:41.895Z,19.27
2018-07-11T08:43:41.922Z,19.35
2018-07-11T08:44:41.944Z,19.43
2018-07-11T08:45:41.976Z,19.46
2018-07-11T08:46:41.997Z,19.49
2018-07-11T08:47:42.022Z,19.61
2018-07-11T08:48:42.042Z,19.86
2018-07-11T08:49:42.070Z,19.80
2018-07-11T08:50:42.092Z,19.90
2018-07-11T08:51:42.118Z,20.02
2018-07-11T08:52:42.141Z,20.17
2018-07-11T08:53:42.176Z,20.27
2018-07-11T08:54:42.198Z,20.15
2018-07-11T08:55:42.216Z,20.30
2018-07-11T08:56:42.247Z,20.20
2018-07-11T08:57:42.268Z,20.17
2018-07-11T08:58:42.294Z,20.15
2018-07-11T08:59:42.324Z,20.16
2018-07-11T09:00:42.343Z,20.12
2018-07-11T09:01:42.377Z,20.10
2018-07-11T09:02:42.436Z,20.08
2018-07-11T09:03:42.421Z,20.10
2018-07-11T09:04:42.452Z,20.15
2018-07-11T09:05:42.473Z,20.12
2018-07-11T09:06:42.509Z,20.16
2018-07-11T09:07:42.526Z,20.12
2018-07-11T09:08:42.552Z,20.05
2018-07-11T09:09:42.580Z,19.98
2018-07-11T09:10:42.622Z,20.07
2018-07-11T09:11:42.628Z,19.98
2018-07-11T09:12:42.651Z,19.89
2018-07-11T09:13:42.684Z,19.82
2018-07-11T09:14:42.703Z,19.89
2018-07-11T09:15:42.732Z,19.95
2018-07-11T09:16:42.753Z,19.86
2018-07-11T09:17:42.783Z,19.97
2018-07-11T09:18:42.807Z,19.95
2018-07-11T09:19:42.830Z,19.86
2018-07-11T09:20:42.863Z,19.86
2018-07-11T09:21:42.884Z,19.76
2018-07-11T09:22:42.904Z,19.75
2018-07-11T09:23:42.935Z,19.85
2018-07-11T09:24:42.966Z,19.75
2018-07-11T09:25:42.985Z,19.86
2018-07-11T09:26:43.012Z,20.07
2018-07-11T09:27:43.037Z,20.15
2018-07-11T09:28:43.066Z,20.05
2018-07-11T09:29:43.086Z,20.08
2018-07-11T09:30:43.112Z,20.12
2018-07-11T09:31:43.137Z,20.12
2018-07-11T09:32:43.168Z,20.20
2018-07-11T09:33:43.201Z,20.25
2018-07-11T09:34:43.217Z,20.34
2018-07-11T09:35:43.248Z,20.33
2018-07-11T09:36:43.268Z,20.26
2018-07-11T09:37:43.319Z,20.20
2018-07-11T09:38:43.323Z,20.33
2018-07-11T09:39:43.347Z,20.26
2018-07-11T09:40:43.371Z,20.37
2018-07-11T09:41:43.399Z,20.35
2018-07-11T09:42:43.426Z,20.26
2018-07-11T09:43:43.451Z,20.33
2018-07-11T09:44:43.475Z,20.23
2018-07-11T09:45:43.505Z,20.12
2018-07-11T09:46:43.528Z,20.08
2018-07-11T09:47:43.550Z,20.07
2018-07-11T09:48:43.580Z,19.98
2018-07-11T09:49:43.605Z,19.97
2018-07-11T09:50:43.630Z,19.94
2018-07-11T09:51:43.657Z,19.89
2018-07-11T09:52:43.682Z,19.87
2018-07-11T09:53:43.712Z,19.76
2018-07-11T09:54:43.734Z,19.75
2018-07-11T09:55:43.760Z,19.67
2018-07-11T09:56:43.784Z,19.60
2018-07-11T09:57:43.838Z,19.47
2018-07-11T09:58:43.839Z,19.42
2018-07-11T09:59:43.860Z,19.34
2018-07-11T10:00:43.884Z,19.34
2018-07-11T10:01:43.914Z,19.30
2018-07-11T10:02:43.938Z,19.21
2018-07-11T10:03:43.962Z,19.20
2018-07-11T10:04:43.992Z,19.20
2018-07-11T10:05:44.008Z,19.15
2018-07-11T10:06:44.029Z,19.13
2018-07-11T10:07:44.066Z,19.07
2018-07-11T10:08:44.086Z,18.94
2018-07-11T10:09:44.110Z,19.01
2018-07-11T10:10:44.134Z,18.93
2018-07-11T10:11:44.159Z,18.90
2018-07-11T10:12:44.182Z,18.96
2018-07-11T10:13:44.221Z,18.79
2018-07-11T10:14:44.239Z,18.90
2018-07-11T10:15:44.260Z,18.93
2018-07-11T10:16:44.288Z,18.82
2018-07-11T10:17:44.310Z,18.87
2018-07-11T10:18:44.336Z,19.12
2018-07-11T10:19:44.355Z,19.20
2018-07-11T10:20:44.378Z,19.40
2018-07-11T10:21:44.453Z,19.67
2018-07-11T10:22:44.434Z,19.71
2018-07-11T10:23:44.454Z,20.04
2018-07-11T10:24:44.476Z,20.16
2018-07-11T10:25:44.508Z,20.46
2018-07-11T10:26:44.530Z,20.68
2018-07-11T10:27:44.554Z,20.83
2018-07-11T10:28:44.583Z,21.08
2018-07-11T10:29:44.607Z,21.27
2018-07-11T10:30:44.628Z,21.36
2018-07-11T10:31:44.661Z,21.63
2018-07-11T10:32:44.681Z,21.61
2018-07-11T10:33:44.736Z,21.63
2018-07-11T10:34:44.735Z,21.68
2018-07-11T10:35:44.757Z,21.67
2018-07-11T10:36:44.784Z,21.74
2018-07-11T10:37:44.813Z,21.81
2018-07-11T10:38:44.838Z,21.73
2018-07-11T10:39:44.915Z,21.82
2018-07-11T10:40:44.886Z,21.82
2018-07-11T10:41:44.917Z,22.01
2018-07-11T10:42:44.948Z,21.90
2018-07-11T10:43:44.968Z,22.09
2018-07-11T10:44:44.997Z,22.26
2018-07-11T10:45:45.023Z,22.14
2018-07-11T10:46:45.054Z,22.23
2018-07-11T10:47:45.077Z,22.29
2018-07-11T10:48:45.102Z,22.15
2018-07-11T10:49:45.128Z,22.11
2018-07-11T10:50:45.153Z,22.12
2018-07-11T10:51:45.187Z,22.36
2018-07-11T10:52:45.209Z,22.30
2018-07-11T10:53:45.236Z,22.38
2018-07-11T10:54:45.271Z,22.06
2018-07-11T10:55:45.286Z,21.82
2018-07-11T10:56:45.316Z,21.81
2018-07-11T10:57:45.442Z,22.06
2018-07-11T10:58:45.372Z,22.33
2018-07-11T10:59:45.406Z,22.59
2018-07-11T11:01:05.032Z,22.74
2018-07-11T11:01:45.458Z,22.84
2018-07-11T11:02:45.614Z,22.91
2018-07-11T11:03:45.517Z,22.99
2018-07-11T11:04:45.552Z,23.09
2018-07-11T11:05:45.569Z,23.23
2018-07-11T11:06:45.594Z,23.32
2018-07-11T11:07:45.616Z,23.18
2018-07-11T11:08:45.648Z,23.01
2018-07-11T11:09:45.678Z,22.93
2018-07-11T11:10:45.704Z,22.75
2018-07-11T11:11:45.732Z,22.66
2018-07-11T11:12:45.756Z,22.45
2018-07-11T11:13:45.791Z,22.38
2018-07-11T11:14:45.818Z,22.70
2018-07-11T11:15:45.844Z,23.12
2018-07-11T11:16:45.868Z,24.36
2018-07-11T11:17:45.896Z,25.56
2018-07-11T11:18:45.940Z,26.83
2018-07-11T11:19:45.956Z,27.31
2018-07-11T11:20:45.992Z,27.06
2018-07-11T11:21:46.011Z,25.76
2018-07-11T11:22:46.040Z,25.29
2018-07-11T11:23:46.075Z,24.87
2018-07-11T11:24:46.098Z,24.30
2018-07-11T11:25:46.199Z,24.29
2018-07-11T11:26:46.160Z,24.68
2018-07-11T11:27:46.190Z,24.24
2018-07-11T11:28:46.219Z,23.86
2018-07-11T11:29:46.250Z,23.54
2018-07-11T11:30:46.286Z,23.39
2018-07-11T11:31:46.306Z,23.09
2018-07-11T11:32:46.342Z,23.03
2018-07-11T11:33:46.365Z,22.70
2018-07-11T11:34:46.395Z,22.31
2018-07-11T11:35:46.521Z,21.91
2018-07-11T11:36:46.458Z,21.74
2018-07-11T11:37:46.484Z,21.61
2018-07-11T11:38:46.510Z,21.48
2018-07-11T11:39:46.538Z,21.24
2018-07-11T11:40:46.566Z,21.19
2018-07-11T11:41:46.660Z,21.05
2018-07-11T11:42:46.632Z,21.13
2018-07-11T11:43:46.657Z,21.13
2018-07-11T11:44:46.680Z,21.01
2018-07-11T11:45:46.708Z,21.01
2018-07-11T11:46:46.728Z,20.94
2018-07-11T11:47:46.757Z,20.91
2018-07-11T11:48:46.786Z,20.78
2018-07-11T11:49:46.820Z,20.75
2018-07-11T11:50:46.842Z,20.69
2018-07-11T11:51:46.877Z,20.64
2018-07-11T11:52:46.905Z,20.61
2018-07-11T11:53:46.921Z,20.72
2018-07-11T11:54:46.996Z,20.72
2018-07-11T11:55:46.985Z,20.72
2018-07-11T11:56:47.008Z,20.75
2018-07-11T11:57:47.031Z,20.72
2018-07-11T11:58:47.060Z,20.63
2018-07-11T11:59:47.084Z,20.83
2018-07-11T12:00:47.108Z,20.78
2018-07-11T12:01:47.181Z,20.85
2018-07-11T12:02:47.167Z,20.93
2018-07-11T12:03:47.188Z,20.93
2018-07-11T12:04:47.219Z,21.12
2018-07-11T12:05:47.241Z,21.12
2018-07-11T12:06:47.268Z,21.08
2018-07-11T12:07:47.300Z,20.98
2018-07-11T12:08:47.327Z,20.96
2018-07-11T12:09:47.351Z,20.94
2018-07-11T12:10:47.377Z,20.97
2018-07-11T12:11:47.399Z,20.97
2018-07-11T12:12:47.424Z,21.06
2018-07-11T12:13:47.454Z,20.93
2018-07-11T12:14:47.489Z,20.96
2018-07-11T12:15:47.506Z,21.13
2018-07-11T12:16:47.546Z,21.12
2018-07-11T12:17:47.566Z,21.33
2018-07-11T12:18:47.585Z,21.48
2018-07-11T12:19:47.616Z,21.49
2018-07-11T12:20:47.637Z,21.58
2018-07-11T12:21:47.660Z,21.73
2018-07-11T12:22:47.704Z,21.64
2018-07-11T12:23:47.715Z,21.74
2018-07-11T12:24:47.750Z,21.86
2018-07-11T12:25:47.770Z,21.81
2018-07-11T12:26:47.796Z,21.82
2018-07-11T12:27:47.826Z,21.85
2018-07-11T12:28:47.848Z,21.64
2018-07-11T12:29:47.874Z,21.67
2018-07-11T12:30:47.907Z,21.64
2018-07-11T12:31:47.924Z,21.53
2018-07-11T12:32:47.956Z,21.55
2018-07-11T12:33:47.978Z,21.58
2018-07-11T12:34:48.013Z,21.53
2018-07-11T12:35:48.033Z,21.59
2018-07-11T12:36:48.064Z,21.63
2018-07-11T12:37:48.083Z,21.58
2018-07-11T12:38:48.109Z,21.63
2018-07-11T12:39:48.131Z,21.70
2018-07-11T12:40:48.165Z,21.68
2018-07-11T12:41:48.193Z,21.52
2018-07-11T12:42:48.213Z,21.42
2018-07-11T12:43:48.246Z,21.45
2018-07-11T12:44:48.270Z,21.46
2018-07-11T12:45:48.291Z,21.49
2018-07-11T12:46:48.327Z,21.55
2018-07-11T12:47:48.343Z,21.63
2018-07-11T12:48:48.376Z,21.63
2018-07-11T12:49:48.404Z,21.63
2018-07-11T12:50:48.423Z,21.48
2018-07-11T12:51:48.451Z,21.46
2018-07-11T12:52:48.479Z,21.30